Margate, South Africa
Current Conditions -  °F | °C
As of 9:00 AM on Saturday 25 Oct 2014 (Local Time) from FALE Reporting Station
Overcast Overcast  
Wind Chill: 72°   Ceiling: 3000
Heat Index: 72°   Visibility: 6mi
Dew Point: 61°   Wind: 6mph
Humidity: 69%   Direction: 40°NE
Pressure: 30.09"   Gusts: NA
Location:  30.85°S, 30.38°E
Report Text: FALE 250700Z 04005KT 9999 SCT020 BKN030 OVC050 22/16 Q1019 NOSIG
Loading
Personal Weather Stations






























Interactive Weather Map
Tropical Storm Tracking
New forecast layout! Learn more

10-Day Weather Forecast

Advertisements
Track Severe Weather on mobile